| time (UTC) | temp C | wind direction | speed KPH | gust KPH | rain 1hr cm | rain 24hr cm | rain mn cm | humidity % | barometer mb |
| 20260506005525 | 23 | 319 | 9.7 | 22.5 | 0.00 | 0.18 | 0.18 | 27 | 1007.9 |
| 20260506005024 | 23 | 270 | 8.0 | 20.9 | 0.00 | 0.18 | 0.18 | 27 | 1007.7 |
| 20260506004540 | 23 | 317 | 11.3 | 20.9 | 0.00 | 0.18 | 0.18 | 27 | 1007.7 |
| 20260506004028 | 23 | 240 | 8.0 | 20.9 | 0.00 | 0.18 | 0.18 | 27 | 1007.7 |
| 20260506003526 | 23 | 290 | 11.3 | 20.9 | 0.00 | 0.18 | 0.18 | 27 | 1007.7 |
| 20260506003040 | 24 | 275 | 8.0 | 20.9 | 0.00 | 0.18 | 0.18 | 26 | 1007.7 |
| 20260506002525 | 24 | 268 | 8.0 | 20.9 | 0.00 | 0.18 | 0.18 | 27 | 1007.7 |
| 20260506002025 | 24 | 264 | 8.0 | 25.7 | 0.00 | 0.18 | 0.18 | 27 | 1007.6 |
| 20260506001549 | 23 | 304 | 9.7 | 25.7 | 0.00 | 0.18 | 0.18 | 27 | 1007.6 |
| 20260506001024 | 23 | 304 | 14.5 | 27.4 | 0.00 | 0.18 | 0.18 | 27 | 1007.6 |
| 20260506000525 | 23 | 302 | 9.7 | 27.4 | 0.00 | 0.18 | 0.18 | 27 | 1007.5 |
| 20260506000042 | 24 | 305 | 11.3 | 27.4 | 0.00 | 0.18 | 0.18 | 26 | 1007.5 |
| 20260505235525 | 24 | 270 | 8.0 | 24.1 | 0.00 | 0.18 | 0.18 | 26 | 1007.4 |
| 20260505235025 | 24 | 277 | 12.9 | 25.7 | 0.00 | 0.18 | 0.18 | 27 | 1007.6 |
| 20260505234544 | 24 | 294 | 11.3 | 25.7 | 0.00 | 0.18 | 0.18 | 27 | 1007.4 |
| 20260505234025 | 24 | 290 | 14.5 | 24.1 | 0.00 | 0.18 | 0.18 | 26 | 1007.4 |
| 20260505233525 | 24 | 292 | 6.4 | 27.4 | 0.00 | 0.18 | 0.18 | 27 | 1007.3 |
| 20260505233038 | 25 | 305 | 9.7 | 27.4 | 0.00 | 0.18 | 0.18 | 27 | 1007.4 |
| 20260505232524 | 25 | 258 | 12.9 | 27.4 | 0.00 | 0.18 | 0.18 | 27 | 1007.4 |
| 20260505232024 | 25 | 300 | 8.0 | 27.4 | 0.00 | 0.18 | 0.18 | 26 | 1007.3 |
| 20260505231550 | 25 | 234 | 9.7 | 27.4 | 0.00 | 0.18 | 0.18 | 27 | 1007.3 |
| 20260505231025 | 25 | 261 | 12.9 | 27.4 | 0.00 | 0.18 | 0.18 | 27 | 1007.4 |
| 20260505230525 | 25 | 346 | 11.3 | 25.7 | 0.00 | 0.18 | 0.18 | 26 | 1007.3 |
| 20260505230054 | 25 | 286 | 11.3 | 25.7 | 0.00 | 0.18 | 0.18 | 27 | 1007.4 |
| 20260505225526 | 24 | 235 | 8.0 | 25.7 | 0.00 | 0.18 | 0.18 | 27 | 1007.3 |
| 20260505225025 | 25 | 321 | 9.7 | 25.7 | 0.00 | 0.18 | 0.18 | 27 | 1007.5 |
| 20260505224540 | 25 | 257 | 9.7 | 24.1 | 0.00 | 0.18 | 0.18 | 28 | 1007.6 |
| 20260505224025 | 25 | 232 | 9.7 | 22.5 | 0.00 | 0.18 | 0.18 | 27 | 1007.4 |
| 20260505223524 | 25 | 299 | 11.3 | 22.5 | 0.00 | 0.18 | 0.18 | 27 | 1007.6 |
| 20260505223039 | 25 | 261 | 4.8 | 25.7 | 0.00 | 0.18 | 0.18 | 26 | 1007.5 |
| 20260505222525 | 25 | 321 | 11.3 | 25.7 | 0.00 | 0.18 | 0.18 | 27 | 1007.7 |
| 20260505222025 | 25 | 246 | 8.0 | 24.1 | 0.00 | 0.18 | 0.18 | 28 | 1007.7 |
| 20260505221539 | 25 | 265 | 8.0 | 22.5 | 0.00 | 0.18 | 0.18 | 27 | 1007.7 |
| 20260505221030 | 25 | 290 | 12.9 | 22.5 | 0.00 | 0.18 | 0.18 | 27 | 1008.0 |
| 20260505220524 | 25 | 288 | 4.8 | 29.0 | 0.00 | 0.18 | 0.18 | 28 | 1007.8 |
| 20260505220046 | 25 | 244 | 11.3 | 29.0 | 0.00 | 0.18 | 0.18 | 27 | 1008.0 |
| 20260505215529 | 25 | 287 | 9.7 | 25.7 | 0.00 | 0.18 | 0.18 | 28 | 1008.0 |
| 20260505215025 | 25 | 268 | 9.7 | 25.7 | 0.00 | 0.18 | 0.18 | 27 | 1007.9 |
| 20260505214544 | 25 | 257 | 9.7 | 25.7 | 0.00 | 0.18 | 0.18 | 28 | 1008.1 |
| 20260505214025 | 25 | 288 | 9.7 | 30.6 | 0.00 | 0.18 | 0.18 | 29 | 1008.1 |
| 20260505213524 | 25 | 231 | 12.9 | 30.6 | 0.00 | 0.18 | 0.18 | 29 | 1008.2 |
| 20260505213051 | 25 | 242 | 4.8 | 25.7 | 0.00 | 0.18 | 0.18 | 31 | 1008.1 |
| 20260505212529 | 25 | 316 | 8.0 | 25.7 | 0.00 | 0.18 | 0.18 | 30 | 1008.2 |
| 20260505212025 | 24 | 244 | 6.4 | 27.4 | 0.00 | 0.18 | 0.18 | 31 | 1008.2 |
| 20260505211539 | 24 | 228 | 8.0 | 27.4 | 0.00 | 0.18 | 0.18 | 31 | 1008.5 |
| 20260505211025 | 25 | 205 | 9.7 | 22.5 | 0.00 | 0.18 | 0.18 | 31 | 1008.5 |
| 20260505210524 | 25 | 266 | 8.0 | 22.5 | 0.00 | 0.18 | 0.18 | 32 | 1008.6 |
| 20260505210038 | 24 | 265 | 11.3 | 22.5 | 0.00 | 0.18 | 0.18 | 33 | 1008.6 |
| 20260505205525 | 24 | 306 | 8.0 | 19.3 | 0.00 | 0.18 | 0.18 | 33 | 1008.6 |
| 20260505205028 | 24 | 278 | 3.2 | 22.5 | 0.00 | 0.18 | 0.18 | 34 | 1008.6 |
| 20260505204539 | 24 | 270 | 6.4 | 24.1 | 0.00 | 0.18 | 0.18 | 34 | 1008.7 |
| 20260505204024 | 24 | 284 | 12.9 | 24.1 | 0.00 | 0.18 | 0.18 | 33 | 1008.8 |
| 20260505203526 | 24 | 223 | 9.7 | 24.1 | 0.00 | 0.18 | 0.18 | 34 | 1008.8 |
| 20260505203042 | 24 | 324 | 12.9 | 24.1 | 0.00 | 0.18 | 0.18 | 33 | 1008.8 |
| 20260505202524 | 24 | 261 | 8.0 | 22.5 | 0.00 | 0.18 | 0.18 | 34 | 1008.8 |
| 20260505202023 | 24 | 241 | 9.7 | 22.5 | 0.00 | 0.18 | 0.18 | 36 | 1008.8 |
| 20260505201543 | 23 | 317 | 9.7 | 22.5 | 0.00 | 0.18 | 0.18 | 38 | 1008.8 |
| 20260505201025 | 23 | 304 | 9.7 | 24.1 | 0.00 | 0.18 | 0.18 | 38 | 1008.8 |
| 20260505200527 | 23 | 296 | 9.7 | 24.1 | 0.00 | 0.18 | 0.18 | 38 | 1009.0 |
| 20260505200043 | 23 | 296 | 6.4 | 22.5 | 0.00 | 0.18 | 0.18 | 39 | 1008.9 |
| 20260505195528 | 23 | 262 | 4.8 | 20.9 | 0.00 | 0.18 | 0.18 | 39 | 1009.0 |
| 20260505195024 | 23 | 302 | 11.3 | 24.1 | 0.00 | 0.18 | 0.18 | 39 | 1009.1 |
| 20260505194539 | 23 | 247 | 6.4 | 24.1 | 0.00 | 0.18 | 0.18 | 40 | 1009.1 |
| 20260505194025 | 23 | 261 | 6.4 | 17.7 | 0.00 | 0.18 | 0.18 | 41 | 1009.1 |
| 20260505193525 | 23 | 223 | 6.4 | 20.9 | 0.00 | 0.18 | 0.18 | 40 | 1009.1 |
| 20260505193039 | 23 | 255 | 9.7 | 24.1 | 0.00 | 0.18 | 0.18 | 40 | 1009.2 |
| 20260505192528 | 22 | 272 | 12.9 | 24.1 | 0.00 | 0.18 | 0.18 | 41 | 1009.3 |
| 20260505192025 | 22 | 240 | 4.8 | 17.7 | 0.00 | 0.18 | 0.18 | 41 | 1009.4 |
| 20260505191606 | 22 | 236 | 6.4 | 17.7 | 0.00 | 0.18 | 0.18 | 41 | 1009.5 |
| 20260505191027 | 23 | 257 | 6.4 | 17.7 | 0.00 | 0.18 | 0.18 | 41 | 1009.6 |
| 20260505190525 | 23 | 247 | 4.8 | 17.7 | 0.00 | 0.18 | 0.18 | 40 | 1009.5 |
| 20260505190042 | 22 | 254 | 3.2 | 27.4 | 0.00 | 0.18 | 0.18 | 41 | 1009.6 |
| 20260505185524 | 23 | 256 | 11.3 | 27.4 | 0.00 | 0.18 | 0.18 | 41 | 1009.7 |
| 20260505185025 | 23 | 275 | 9.7 | 20.9 | 0.00 | 0.18 | 0.18 | 42 | 1009.7 |
| 20260505184539 | 22 | 352 | 9.7 | 20.9 | 0.00 | 0.18 | 0.18 | 42 | 1009.7 |
| 20260505184025 | 23 | 301 | 8.0 | 19.3 | 0.00 | 0.18 | 0.18 | 42 | 1009.7 |
| 20260505183524 | 23 | 225 | 8.0 | 17.7 | 0.00 | 0.18 | 0.18 | 41 | 1009.7 |
| 20260505183040 | 22 | 285 | 9.7 | 22.5 | 0.00 | 0.18 | 0.18 | 42 | 1009.8 |
| 20260505182525 | 22 | 281 | 12.9 | 22.5 | 0.00 | 0.18 | 0.18 | 43 | 1009.9 |
| 20260505182024 | 22 | 246 | 6.4 | 17.7 | 0.00 | 0.18 | 0.18 | 43 | 1009.8 |
| 20260505181535 | 22 | 199 | 4.8 | 19.3 | 0.00 | 0.18 | 0.18 | 45 | 1009.8 |
| 20260505181026 | 22 | 294 | 8.0 | 19.3 | 0.00 | 0.18 | 0.18 | 45 | 1009.7 |
| 20260505180525 | 22 | 224 | 9.7 | 22.5 | 0.00 | 0.18 | 0.18 | 43 | 1009.8 |
| 20260505180059 | 22 | 224 | 11.3 | 22.5 | 0.00 | 0.18 | 0.18 | 44 | 1009.9 |
| 20260505175525 | 22 | 266 | 9.7 | 22.5 | 0.00 | 0.18 | 0.18 | 45 | 1009.7 |
| 20260505175026 | 22 | 275 | 6.4 | 17.7 | 0.00 | 0.18 | 0.18 | 46 | 1009.8 |
| 20260505174551 | 22 | 194 | 3.2 | 17.7 | 0.00 | 0.18 | 0.18 | 48 | 1009.9 |
| 20260505174025 | 21 | 251 | 6.4 | 14.5 | 0.00 | 0.18 | 0.18 | 49 | 1009.9 |
| 20260505173527 | 21 | 167 | 6.4 | 14.5 | 0.00 | 0.18 | 0.18 | 50 | 1009.9 |
| 20260505173041 | 21 | 184 | 4.8 | 17.7 | 0.00 | 0.18 | 0.18 | 50 | 1009.9 |
| 20260505172525 | 21 | 242 | 4.8 | 17.7 | 0.00 | 0.18 | 0.18 | 51 | 1009.9 |
| 20260505172025 | 21 | 234 | 6.4 | 16.1 | 0.00 | 0.18 | 0.18 | 52 | 1009.9 |
| 20260505171539 | 21 | 232 | 6.4 | 17.7 | 0.00 | 0.18 | 0.18 | 52 | 1009.9 |
| 20260505171025 | 21 | 267 | 6.4 | 17.7 | 0.00 | 0.18 | 0.18 | 53 | 1009.9 |
| 20260505170525 | 21 | 210 | 4.8 | 12.9 | 0.00 | 0.18 | 0.18 | 54 | 1009.9 |
| 20260505170039 | 20 | 226 | 3.2 | 19.3 | 0.00 | 0.18 | 0.18 | 54 | 1009.9 |
| 20260505165525 | 21 | 249 | 8.0 | 19.3 | 0.00 | 0.18 | 0.18 | 54 | 1009.9 |
| 20260505165025 | 21 | 217 | 4.8 | 16.1 | 0.00 | 0.18 | 0.18 | 54 | 1009.9 |
| 20260505164549 | 21 | 233 | 6.4 | 14.5 | 0.00 | 0.18 | 0.18 | 54 | 1009.9 |
| 20260505164029 | 21 | 196 | 8.0 | 19.3 | 0.00 | 0.18 | 0.18 | 54 | 1009.9 |
| 20260505163525 | 21 | 208 | 4.8 | 19.3 | 0.00 | 0.18 | 0.18 | 54 | 1009.8 |
| 20260505163040 | 21 | 277 | 9.7 | 19.3 | 0.00 | 0.18 | 0.18 | 53 | 1009.8 |
| 20260505162525 | 21 | 323 | 6.4 | 17.7 | 0.00 | 0.18 | 0.18 | 54 | 1009.9 |
| 20260505162025 | 21 | 248 | 4.8 | 16.1 | 0.00 | 0.18 | 0.18 | 54 | 1009.8 |
| 20260505161540 | 21 | 268 | 6.4 | 17.7 | 0.00 | 0.18 | 0.18 | 55 | 1009.8 |
| 20260505161025 | 20 | 263 | 8.0 | 19.3 | 0.00 | 0.18 | 0.18 | 56 | 1009.9 |
| 20260505160525 | 20 | 180 | 11.3 | 19.3 | 0.00 | 0.18 | 0.18 | 56 | 1010.0 |
| 20260505153045 | 20 | 0 | 3.2 | 12.9 | 0.00 | 0.18 | 0.18 | 60 | 1009.7 |
| 20260505152525 | 20 | 252 | 4.8 | 12.9 | 0.00 | 0.18 | 0.18 | 61 | 1009.7 |
| 20260505152025 | 20 | 209 | 3.2 | 12.9 | 0.00 | 0.18 | 0.18 | 62 | 1009.7 |
| 20260505151543 | 20 | 238 | 3.2 | 12.9 | 0.00 | 0.18 | 0.18 | 64 | 1009.7 |
| 20260505151026 | 19 | 200 | 4.8 | 12.9 | 0.00 | 0.18 | 0.18 | 65 | 1009.7 |
| 20260505150525 | 19 | 192 | 4.8 | 12.9 | 0.00 | 0.18 | 0.18 | 66 | 1009.7 |
| 20260505140526 | 17 | 139 | 0.0 | 9.7 | 0.00 | 0.18 | 0.18 | 81 | 1009.7 |
| 20260505125025 | 17 | 193 | 6.4 | 11.3 | 0.00 | 0.18 | 0.18 | 79 | 1009.0 |
| 20260505124545 | 17 | 200 | 3.2 | 12.9 | 0.00 | 0.18 | 0.18 | 79 | 1009.0 |
| 20260505124025 | 17 | 151 | 4.8 | 12.9 | 0.00 | 0.18 | 0.18 | 79 | 1009.0 |
| 20260505123524 | 17 | 144 | 4.8 | 11.3 | 0.00 | 0.18 | 0.18 | 78 | 1009.0 |
| 20260505123040 | 17 | 178 | 6.4 | 11.3 | 0.00 | 0.18 | 0.18 | 78 | 1009.0 |
| 20260505122524 | 17 | 183 | 4.8 | 11.3 | 0.00 | 0.18 | 0.18 | 77 | 1008.8 |
| 20260505122025 | 17 | 196 | 4.8 | 11.3 | 0.00 | 0.18 | 0.18 | 77 | 1008.8 |
| 20260505121539 | 17 | 167 | 4.8 | 11.3 | 0.00 | 0.18 | 0.18 | 77 | 1008.8 |
| 20260505121025 | 16 | 171 | 4.8 | 9.7 | 0.00 | 0.18 | 0.18 | 79 | 1008.7 |
| 20260505120524 | 16 | 140 | 1.6 | 6.4 | 0.00 | 0.18 | 0.18 | 80 | 1008.7 |
| 20260505120039 | 16 | 163 | 3.2 | 9.7 | 0.00 | 0.18 | 0.18 | 80 | 1008.7 |
| 20260505115524 | 16 | 158 | 1.6 | 9.7 | 0.00 | 0.18 | 0.18 | 80 | 1008.8 |
| 20260505115024 | 16 | 140 | 4.8 | 9.7 | 0.00 | 0.18 | 0.18 | 79 | 1008.8 |
| 20260505114540 | 16 | 164 | 3.2 | 11.3 | 0.00 | 0.18 | 0.18 | 79 | 1008.7 |
| 20260505114028 | 16 | 140 | 3.2 | 12.9 | 0.00 | 0.18 | 0.18 | 79 | 1008.7 |
| 20260505113524 | 16 | 194 | 6.4 | 14.5 | 0.00 | 0.18 | 0.18 | 79 | 1008.6 |
| 20260505113050 | 16 | 160 | 6.4 | 14.5 | 0.00 | 0.18 | 0.18 | 78 | 1008.5 |
| 20260505112526 | 16 | 170 | 6.4 | 16.1 | 0.00 | 0.18 | 0.18 | 78 | 1008.6 |
| 20260505112024 | 16 | 165 | 6.4 | 16.1 | 0.00 | 0.18 | 0.18 | 78 | 1008.7 |
| 20260505111540 | 16 | 186 | 4.8 | 14.5 | 0.00 | 0.18 | 0.18 | 78 | 1008.7 |
| 20260505111026 | 16 | 144 | 6.4 | 16.1 | 0.00 | 0.18 | 0.18 | 78 | 1008.7 |
| 20260505110528 | 16 | 183 | 6.4 | 17.7 | 0.00 | 0.18 | 0.18 | 79 | 1008.8 |
| 20260505102025 | 16 | 171 | 8.0 | 16.1 | 0.00 | 0.18 | 0.18 | 77 | 1009.6 |
| 20260505101555 | 17 | 186 | 6.4 | 14.5 | 0.00 | 0.18 | 0.18 | 77 | 1009.6 |
| 20260505101025 | 17 | 163 | 6.4 | 14.5 | 0.00 | 0.18 | 0.18 | 77 | 1009.6 |
| 20260505100525 | 17 | 184 | 4.8 | 12.9 | 0.00 | 0.18 | 0.18 | 77 | 1009.6 |
| 20260505100058 | 16 | 193 | 4.8 | 12.9 | 0.00 | 0.18 | 0.18 | 78 | 1009.8 |
| 20260505095527 | 16 | 170 | 6.4 | 12.9 | 0.00 | 0.18 | 0.18 | 78 | 1009.8 |
| 20260505095025 | 16 | 169 | 6.4 | 12.9 | 0.00 | 0.18 | 0.18 | 79 | 1009.9 |
| 20260505094541 | 16 | 195 | 6.4 | 12.9 | 0.00 | 0.18 | 0.18 | 80 | 1009.8 |
| 20260505094025 | 16 | 193 | 6.4 | 12.9 | 0.03 | 0.18 | 0.18 | 81 | 1009.8 |
| 20260505093525 | 16 | 184 | 6.4 | 11.3 | 0.03 | 0.18 | 0.18 | 82 | 1009.7 |
| 20260505093040 | 16 | 126 | 4.8 | 9.7 | 0.05 | 0.18 | 0.18 | 82 | 1009.8 |
| 20260505092525 | 16 | 199 | 3.2 | 11.3 | 0.08 | 0.18 | 0.18 | 83 | 1009.8 |
| 20260505092024 | 16 | 182 | 3.2 | 11.3 | 0.10 | 0.18 | 0.18 | 84 | 1009.9 |
| 20260505091539 | 16 | 157 | 4.8 | 12.9 | 0.10 | 0.18 | 0.18 | 84 | 1009.9 |
| 20260505091025 | 16 | 140 | 4.8 | 12.9 | 0.13 | 0.18 | 0.18 | 85 | 1010.1 |
| 20260505090524 | 16 | 180 | 6.4 | 12.9 | 0.13 | 0.18 | 0.18 | 86 | 1010.0 |
| 20260505090044 | 16 | 121 | 3.2 | 9.7 | 0.13 | 0.18 | 0.18 | 85 | 1010.3 |
| 20260505085524 | 16 | 144 | 3.2 | 8.0 | 0.13 | 0.18 | 0.18 | 85 | 1010.1 |
| 20260505085024 | 16 | 146 | 3.2 | 11.3 | 0.13 | 0.18 | 0.18 | 84 | 1010.3 |
| 20260505084541 | 16 | 146 | 3.2 | 11.3 | 0.13 | 0.18 | 0.18 | 84 | 1010.4 |
| 20260505084024 | 16 | 180 | 4.8 | 16.1 | 0.13 | 0.15 | 0.15 | 83 | 1010.6 |
| 20260505083526 | 16 | 159 | 4.8 | 19.3 | 0.13 | 0.13 | 0.13 | 83 | 1010.7 |
| 20260505083040 | 16 | 207 | 6.4 | 20.9 | 0.13 | 0.13 | 0.13 | 82 | 1010.7 |
| 20260505082525 | 16 | 173 | 11.3 | 27.4 | 0.10 | 0.10 | 0.10 | 80 | 1011.1 |
| 20260505082025 | 16 | 162 | 9.7 | 27.4 | 0.08 | 0.08 | 0.08 | 80 | 1011.0 |
| 20260505081546 | 16 | 198 | 11.3 | 25.7 | 0.08 | 0.08 | 0.08 | 79 | 1010.9 |
| 20260505081025 | 16 | 173 | 9.7 | 24.1 | 0.05 | 0.05 | 0.05 | 79 | 1010.7 |
| 20260505080525 | 16 | 171 | 8.0 | 22.5 | 0.05 | 0.05 | 0.05 | 79 | 1010.6 |
| 20260505080047 | 16 | 173 | 9.7 | 32.2 | 0.05 | 0.05 | 0.05 | 77 | 1010.7 |
| 20260505075525 | 16 | 157 | 14.5 | 32.2 | 0.05 | 0.05 | 0.05 | 75 | 1010.8 |
| 20260505075024 | 17 | 145 | 9.7 | 22.5 | 0.05 | 0.05 | 0.05 | 73 | 1010.7 |
| 20260505074535 | 17 | 165 | 11.3 | 24.1 | 0.05 | 0.05 | 0.05 | 71 | 1010.8 |
| 20260505074024 | 17 | 147 | 11.3 | 24.1 | 0.03 | 0.03 | 0.03 | 67 | 1010.7 |
| 20260505073524 | 18 | 169 | 9.7 | 19.3 | 0.00 | 0.00 | 0.00 | 63 | 1010.7 |
| 20260505073043 | 19 | 167 | 8.0 | 17.7 | 0.00 | 0.00 | 0.00 | 57 | 1010.8 |
| 20260505072525 | 20 | 194 | 6.4 | 19.3 | 0.00 | 0.00 | 0.00 | 55 | 1010.6 |
| 20260505072025 | 20 | 191 | 11.3 | 19.3 | 0.00 | 0.00 | 0.00 | 51 | 1010.6 |
| 20260505071550 | 20 | 205 | 9.7 | 19.3 | 0.00 | 0.00 | 0.00 | 50 | 1010.6 |
| 20260505071025 | 20 | 232 | 8.0 | 14.5 | 0.00 | 0.00 | 0.00 | 48 | 1010.4 |
| 20260505070526 | 20 | 216 | 6.4 | 12.9 | 0.00 | 0.00 | 0.00 | 47 | 1010.4 |
| 20260505070040 | 20 | 188 | 4.8 | 16.1 | 0.00 | 0.00 | 0.00 | 48 | 1010.5 |
| 20260505065525 | 20 | 229 | 8.0 | 16.1 | 0.00 | 0.00 | 0.00 | 48 | 1010.3 |
| 20260505065025 | 20 | 194 | 8.0 | 16.1 | 0.00 | 0.00 | 0.00 | 47 | 1010.3 |
| 20260505064538 | 20 | 216 | 6.4 | 19.3 | 0.00 | 0.00 | 0.00 | 47 | 1010.1 |
| 20260505064024 | 20 | 204 | 6.4 | 20.9 | 0.00 | 0.00 | 0.00 | 46 | 1009.9 |
| 20260505063524 | 20 | 203 | 11.3 | 20.9 | 0.00 | 0.00 | 0.00 | 46 | 1009.9 |
| 20260505063047 | 20 | 148 | 6.4 | 22.5 | 0.00 | 0.00 | 0.00 | 45 | 1009.8 |
| 20260505062524 | 20 | 171 | 8.0 | 25.7 | 0.00 | 0.00 | 0.00 | 45 | 1009.9 |
| 20260505062025 | 20 | 171 | 12.9 | 27.4 | 0.00 | 0.00 | 0.00 | 44 | 1009.8 |
| 20260505061545 | 21 | 144 | 9.7 | 27.4 | 0.00 | 0.00 | 0.00 | 42 | 1009.8 |
| 20260505061026 | 21 | 183 | 9.7 | 24.1 | 0.00 | 0.00 | 0.00 | 40 | 1009.9 |
| 20260505060525 | 21 | 152 | 9.7 | 24.1 | 0.00 | 0.00 | 0.00 | 38 | 1009.8 |
| 20260505060043 | 21 | 171 | 9.7 | 22.5 | 0.00 | 0.00 | 0.00 | 36 | 1009.8 |
| 20260505055525 | 21 | 201 | 4.8 | 20.9 | 0.00 | 0.00 | 0.00 | 34 | 1009.8 |
| 20260505055025 | 21 | 212 | 6.4 | 20.9 | 0.00 | 0.00 | 0.00 | 33 | 1009.9 |
| 20260505054546 | 21 | 186 | 11.3 | 20.9 | 0.00 | 0.00 | 0.00 | 33 | 1010.2 |
| 20260505054026 | 21 | 162 | 6.4 | 19.3 | 0.00 | 0.00 | 0.00 | 32 | 1010.4 |
| 20260505053524 | 21 | 209 | 6.4 | 19.3 | 0.00 | 0.00 | 0.00 | 32 | 1010.3 |
| 20260505053044 | 22 | 179 | 9.7 | 17.7 | 0.00 | 0.00 | 0.00 | 31 | 1010.5 |
| 20260505052528 | 22 | 184 | 6.4 | 17.7 | 0.00 | 0.00 | 0.00 | 31 | 1010.5 |
| 20260505052028 | 22 | 202 | 9.7 | 25.7 | 0.00 | 0.00 | 0.00 | 30 | 1010.6 |
| 20260505051542 | 22 | 188 | 8.0 | 25.7 | 0.00 | 0.00 | 0.00 | 29 | 1010.6 |
| 20260505051024 | 22 | 200 | 8.0 | 19.3 | 0.00 | 0.00 | 0.00 | 29 | 1010.6 |
| 20260505050524 | 22 | 237 | 9.7 | 24.1 | 0.00 | 0.00 | 0.00 | 29 | 1010.5 |
| 20260505041539 | 22 | 205 | 8.0 | 20.9 | 0.00 | 0.00 | 0.00 | 31 | 1010.5 |
| 20260505041025 | 22 | 155 | 8.0 | 20.9 | 0.00 | 0.00 | 0.00 | 32 | 1010.3 |
| 20260505040526 | 22 | 199 | 9.7 | 24.1 | 0.00 | 0.00 | 0.00 | 33 | 1010.4 |
| 20260505040040 | 22 | 254 | 11.3 | 24.1 | 0.00 | 0.00 | 0.00 | 38 | 1010.1 |
| 20260505035524 | 22 | 219 | 4.8 | 9.7 | 0.00 | 0.00 | 0.00 | 43 | 1009.9 |
| 20260505035024 | 22 | 203 | 3.2 | 12.9 | 0.00 | 0.00 | 0.00 | 43 | 1009.8 |
| 20260505034545 | 22 | 213 | 4.8 | 12.9 | 0.00 | 0.00 | 0.00 | 43 | 1009.7 |
| 20260505034026 | 23 | 223 | 6.4 | 14.5 | 0.00 | 0.00 | 0.00 | 43 | 1009.7 |
| 20260505033525 | 23 | 210 | 4.8 | 14.5 | 0.00 | 0.00 | 0.00 | 43 | 1009.7 |
| 20260505033040 | 23 | 213 | 6.4 | 16.1 | 0.00 | 0.00 | 0.00 | 43 | 1009.7 |
| 20260505032525 | 23 | 229 | 8.0 | 16.1 | 0.00 | 0.00 | 0.00 | 42 | 1009.4 |
| 20260505032024 | 23 | 209 | 6.4 | 16.1 | 0.00 | 0.00 | 0.00 | 42 | 1009.2 |
| 20260505031544 | 23 | 190 | 6.4 | 14.5 | 0.00 | 0.00 | 0.00 | 42 | 1009.2 |
| 20260505031027 | 23 | 219 | 6.4 | 14.5 | 0.00 | 0.00 | 0.00 | 42 | 1009.2 |
| 20260505030525 | 23 | 196 | 3.2 | 12.9 | 0.00 | 0.00 | 0.00 | 41 | 1009.3 |
| 20260505030041 | 23 | 214 | 6.4 | 12.9 | 0.00 | 0.00 | 0.00 | 41 | 1009.2 |
| 20260505025526 | 23 | 218 | 6.4 | 16.1 | 0.00 | 0.00 | 0.00 | 40 | 1009.3 |
| 20260505025025 | 23 | 216 | 9.7 | 16.1 | 0.00 | 0.00 | 0.00 | 39 | 1009.2 |
| 20260505024539 | 23 | 198 | 6.4 | 12.9 | 0.00 | 0.00 | 0.00 | 39 | 1009.2 |
| 20260505024026 | 23 | 198 | 4.8 | 12.9 | 0.00 | 0.00 | 0.00 | 38 | 1009.1 |
| 20260505023524 | 23 | 205 | 4.8 | 12.9 | 0.00 | 0.00 | 0.00 | 38 | 1009.1 |
| 20260505023050 | 23 | 230 | 4.8 | 16.1 | 0.00 | 0.00 | 0.00 | 38 | 1009.2 |
| 20260505022524 | 23 | 230 | 6.4 | 16.1 | 0.00 | 0.00 | 0.00 | 36 | 1009.3 |
| 20260505022025 | 23 | 178 | 8.0 | 16.1 | 0.00 | 0.00 | 0.00 | 36 | 1009.4 |
| 20260505021544 | 23 | 196 | 8.0 | 17.7 | 0.00 | 0.00 | 0.00 | 36 | 1009.2 |
| 20260505021025 | 23 | 250 | 6.4 | 17.7 | 0.00 | 0.00 | 0.00 | 37 | 1009.2 |
| 20260505020526 | 24 | 232 | 4.8 | 12.9 | 0.00 | 0.00 | 0.00 | 37 | 1009.1 |
| 20260505020040 | 24 | 209 | 6.4 | 12.9 | 0.00 | 0.00 | 0.00 | 36 | 1008.9 |
| 20260505015525 | 24 | 271 | 4.8 | 11.3 | 0.00 | 0.00 | 0.00 | 36 | 1009.0 |
| 20260505015025 | 24 | 243 | 3.2 | 11.3 | 0.00 | 0.00 | 0.00 | 36 | 1008.8 |
| 20260505014540 | 24 | 196 | 3.2 | 11.3 | 0.00 | 0.00 | 0.00 | 36 | 1008.7 |
| 20260505014024 | 24 | 246 | 4.8 | 11.3 | 0.00 | 0.00 | 0.00 | 36 | 1008.6 |
| 20260505013524 | 24 | 209 | 1.6 | 9.7 | 0.00 | 0.00 | 0.00 | 36 | 1008.6 |
| 20260505013039 | 24 | 298 | 3.2 | 11.3 | 0.00 | 0.00 | 0.00 | 36 | 1008.6 |
| 20260505012524 | 24 | 227 | 3.2 | 11.3 | 0.00 | 0.00 | 0.00 | 36 | 1008.8 |
| 20260505012024 | 25 | 215 | 3.2 | 9.7 | 0.00 | 0.00 | 0.00 | 36 | 1008.7 |
| 20260505011548 | 25 | 284 | 1.6 | 11.3 | 0.00 | 0.00 | 0.00 | 35 | 1008.7 |
| 20260505011027 | 25 | 279 | 3.2 | 11.3 | 0.00 | 0.00 | 0.00 | 35 | 1008.8 |
| 20260505010525 | 25 | 265 | 1.6 | 12.9 | 0.00 | 0.00 | 0.00 | 36 | 1008.8 |